Time;durP1;ratioP1;P1;durP2;ratioP2;P2;SDS_P1;SDS_P2;PMS_P1;PMS_P2;Temp;Humidity;BMP_temperature;BMP_pressure;BME280_temperature;BME280_humidity;BME280_pressure;Samples;Min_cycle;Max_cycle;Signal;HPM_P1;HPM_P2
2023/09/25 00:00:56;;;;;;;4.33;2.30;;;;;;;;;;5018133;28;20418;-89
2023/09/25 00:03:22;;;;;;;2.30;1.67;;;;;;;;;;5017524;28;20411;-89
2023/09/25 00:05:48;;;;;;;3.20;1.87;;;;;;;;;;5017882;28;20784;-90
2023/09/25 00:08:14;;;;;;;3.80;2.63;;;;;;;;;;5017524;28;20439;-91
2023/09/25 00:10:41;;;;;;;4.27;2.23;;;;;;;;;;5017801;28;20415;-91
2023/09/25 00:13:08;;;;;;;3.93;2.00;;;;;;;;;;5017843;28;20424;-90
2023/09/25 00:15:34;;;;;;;3.23;2.50;;;;;;;;;;5028910;28;20416;-90
2023/09/25 00:18:00;;;;;;;3.40;1.90;;;;;;;;;;5035488;28;20977;-93
2023/09/25 00:20:26;;;;;;;3.70;2.33;;;;;;;;;;5017604;28;20428;-91
2023/09/25 00:22:52;;;;;;;4.80;2.30;;;;;;;;;;5017524;28;20415;-90
2023/09/25 00:25:23;;;;;;;4.73;3.40;;;;;;;;;;5035321;28;20410;-89
2023/09/25 00:27:49;;;;;;;3.33;1.63;;;;;;;;;;5018099;28;20474;-92
2023/09/25 00:30:15;;;;;;;3.20;2.67;;;;;;;;;;5017925;28;20411;-91
2023/09/25 00:32:41;;;;;;;5.10;2.40;;;;;;;;;;5017548;28;20512;-90
2023/09/25 00:35:10;;;;;;;3.60;2.40;;;;;;;;;;5017027;28;20507;-90
2023/09/25 00:37:39;;;;;;;5.90;2.73;;;;;;;;;;5031873;28;20427;-92
2023/09/25 00:40:18;;;;;;;5.60;2.30;;;;;;;;;;5017748;28;20920;-93
2023/09/25 00:42:53;;;;;;;3.80;2.53;;;;;;;;;;5017967;28;20417;-90
2023/09/25 00:45:19;;;;;;;3.50;2.30;;;;;;;;;;5018083;28;20426;-90
2023/09/25 00:47:45;;;;;;;4.03;2.80;;;;;;;;;;5030066;28;20473;-90
2023/09/25 00:50:11;;;;;;;4.43;2.63;;;;;;;;;;5027060;28;20478;-91
2023/09/25 00:52:41;;;;;;;5.60;2.37;;;;;;;;;;5030141;28;20422;-91
2023/09/25 00:55:07;;;;;;;3.27;2.60;;;;;;;;;;5029621;28;20911;-88
2023/09/25 00:57:34;;;;;;;4.53;2.50;;;;;;;;;;5016894;28;20409;-89
2023/09/25 01:00:00;;;;;;;4.77;2.80;;;;;;;;;;5016922;28;20432;-88
2023/09/25 01:02:26;;;;;;;3.40;1.97;;;;;;;;;;5033912;28;20493;-90
2023/09/25 01:04:52;;;;;;;5.13;3.07;;;;;;;;;;5016185;28;20468;-88
2023/09/25 01:07:19;;;;;;;4.70;2.63;;;;;;;;;;5017206;28;20472;-88
2023/09/25 01:10:09;;;;;;;5.93;3.50;;;;;;;;;;5017733;28;20418;-89
2023/09/25 01:12:37;;;;;;;4.60;2.67;;;;;;;;;;4998458;28;20415;-89
2023/09/25 01:15:03;;;;;;;5.20;2.50;;;;;;;;;;5034037;28;20399;-90
2023/09/25 01:17:29;;;;;;;2.83;2.10;;;;;;;;;;5016423;28;20478;-89
2023/09/25 01:19:55;;;;;;;3.57;2.40;;;;;;;;;;5016575;28;20428;-90
2023/09/25 01:22:21;;;;;;;4.73;3.50;;;;;;;;;;5016164;28;20461;-91
2023/09/25 01:24:47;;;;;;;5.13;3.17;;;;;;;;;;5034289;28;20521;-92
2023/09/25 01:27:13;;;;;;;4.30;2.93;;;;;;;;;;5034088;28;21032;-92
2023/09/25 01:29:39;;;;;;;3.43;2.70;;;;;;;;;;5016558;28;20419;-90
2023/09/25 01:32:05;;;;;;;4.73;2.50;;;;;;;;;;5016027;28;20925;-91
2023/09/25 01:34:31;;;;;;;4.23;3.10;;;;;;;;;;5016885;28;20419;-91
2023/09/25 01:36:58;;;;;;;5.87;3.03;;;;;;;;;;5016080;28;20414;-89
2023/09/25 01:39:24;;;;;;;3.80;2.07;;;;;;;;;;5034126;28;20418;-90
2023/09/25 01:41:50;;;;;;;4.07;2.87;;;;;;;;;;5033462;28;20770;-89
2023/09/25 01:44:16;;;;;;;4.33;2.80;;;;;;;;;;5015678;28;20405;-89
2023/09/25 01:46:42;;;;;;;4.77;3.23;;;;;;;;;;5015535;28;20535;-88
2023/09/25 01:49:08;;;;;;;6.00;2.57;;;;;;;;;;5015853;28;20410;-89
2023/09/25 01:51:34;;;;;;;6.93;2.60;;;;;;;;;;5015351;28;20926;-89
2023/09/25 01:54:00;;;;;;;6.00;3.60;;;;;;;;;;5033215;28;20413;-88
2023/09/25 01:56:27;;;;;;;2.70;2.47;;;;;;;;;;5030399;28;20746;-89
2023/09/25 01:58:53;;;;;;;4.10;3.13;;;;;;;;;;5015213;28;20470;-88
2023/09/25 02:01:19;;;;;;;4.20;2.47;;;;;;;;;;5015285;28;20436;-89
2023/09/25 02:03:46;;;;;;;3.83;2.73;;;;;;;;;;5032913;28;20437;-89
2023/09/25 02:06:12;;;;;;;4.90;2.70;;;;;;;;;;5015212;28;20197;-88
2023/09/25 02:08:40;;;;;;;4.20;2.53;;;;;;;;;;5033096;28;20444;-89
2023/09/25 02:11:06;;;;;;;5.30;3.00;;;;;;;;;;5016134;28;20436;-89
2023/09/25 02:13:32;;;;;;;4.10;2.53;;;;;;;;;;5015700;28;20441;-87
2023/09/25 02:15:58;;;;;;;3.93;2.50;;;;;;;;;;5016674;28;20181;-89
2023/09/25 02:18:24;;;;;;;3.87;3.27;;;;;;;;;;5033234;28;20416;-88
2023/09/25 02:20:50;;;;;;;6.63;3.60;;;;;;;;;;5033754;28;20500;-90
2023/09/25 02:23:16;;;;;;;6.50;3.77;;;;;;;;;;5019497;28;20417;-89
2023/09/25 02:25:42;;;;;;;4.97;3.20;;;;;;;;;;5018894;28;20436;-87
2023/09/25 02:28:08;;;;;;;6.47;3.50;;;;;;;;;;5018970;28;20424;-89
2023/09/25 02:30:34;;;;;;;4.13;3.67;;;;;;;;;;5036557;28;20411;-89
2023/09/25 02:33:00;;;;;;;7.43;3.93;;;;;;;;;;5018974;28;20425;-88
2023/09/25 02:35:26;;;;;;;4.63;3.20;;;;;;;;;;5033975;28;20405;-89
2023/09/25 02:37:52;;;;;;;4.53;4.10;;;;;;;;;;5036487;28;20485;-89
2023/09/25 02:40:18;;;;;;;9.17;3.50;;;;;;;;;;5036976;28;20412;-89
2023/09/25 02:42:47;;;;;;;5.20;3.20;;;;;;;;;;5018980;28;20413;-89
2023/09/25 02:45:13;;;;;;;6.53;4.00;;;;;;;;;;5019052;28;20417;-89
2023/09/25 02:47:39;;;;;;;4.90;3.30;;;;;;;;;;5036327;28;20983;-90
2023/09/25 02:50:05;;;;;;;3.73;3.33;;;;;;;;;;5018438;28;20505;-87
2023/09/25 02:52:31;;;;;;;7.17;4.63;;;;;;;;;;5018614;28;20421;-88
2023/09/25 02:54:57;;;;;;;7.67;4.90;;;;;;;;;;5018843;28;20467;-88
2023/09/25 02:57:23;;;;;;;4.20;3.53;;;;;;;;;;5018440;28;20405;-90
2023/09/25 02:59:49;;;;;;;6.63;3.73;;;;;;;;;;5036519;28;20970;-89
2023/09/25 03:02:15;;;;;;;4.20;3.50;;;;;;;;;;5018347;28;20504;-88
2023/09/25 03:04:41;;;;;;;4.60;3.23;;;;;;;;;;5018465;28;20441;-89
2023/09/25 03:07:07;;;;;;;4.93;4.43;;;;;;;;;;5017895;28;20472;-90
2023/09/25 03:09:33;;;;;;;6.37;4.10;;;;;;;;;;5018675;28;20405;-87
2023/09/25 03:11:59;;;;;;;5.30;3.93;;;;;;;;;;5017650;28;20941;-87
2023/09/25 03:14:25;;;;;;;5.10;4.53;;;;;;;;;;5017648;28;20422;-87
2023/09/25 03:16:51;;;;;;;5.53;4.20;;;;;;;;;;5017647;28;20429;-87
2023/09/25 03:19:17;;;;;;;5.60;3.67;;;;;;;;;;5017493;28;20404;-88
2023/09/25 03:21:45;;;;;;;3.90;3.20;;;;;;;;;;5036033;28;20811;-87
2023/09/25 03:24:11;;;;;;;5.30;3.83;;;;;;;;;;5035223;28;20508;-87
2023/09/25 03:26:37;;;;;;;6.47;4.00;;;;;;;;;;5035321;28;20479;-88
2023/09/25 03:29:04;;;;;;;5.70;4.60;;;;;;;;;;5035077;28;20400;-87
2023/09/25 03:31:31;;;;;;;10.43;4.33;;;;;;;;;;5034781;28;20418;-88
2023/09/25 03:34:00;;;;;;;4.50;3.60;;;;;;;;;;5017290;28;20428;-87
2023/09/25 03:36:26;;;;;;;5.70;4.17;;;;;;;;;;5014092;28;20503;-87
2023/09/25 03:38:52;;;;;;;5.13;4.37;;;;;;;;;;5035047;28;20421;-87
2023/09/25 03:41:18;;;;;;;5.20;4.20;;;;;;;;;;5017615;28;20429;-89
2023/09/25 03:43:44;;;;;;;5.40;4.30;;;;;;;;;;5035918;28;20486;-90
2023/09/25 03:46:10;;;;;;;7.87;5.10;;;;;;;;;;5036157;28;20460;-92
2023/09/25 03:48:36;;;;;;;5.20;3.87;;;;;;;;;;5018347;28;20429;-90
2023/09/25 03:51:02;;;;;;;6.20;4.10;;;;;;;;;;5017560;28;20420;-90
2023/09/25 03:53:28;;;;;;;7.47;4.43;;;;;;;;;;5018404;28;20435;-91
2023/09/25 03:55:54;;;;;;;7.33;4.73;;;;;;;;;;5018069;28;20933;-90
2023/09/25 03:58:20;;;;;;;6.60;4.27;;;;;;;;;;5034938;28;20526;-89
2023/09/25 04:00:46;;;;;;;6.33;4.40;;;;;;;;;;5017831;28;20418;-88
2023/09/25 04:03:12;;;;;;;4.70;4.20;;;;;;;;;;5017516;28;20417;-87
2023/09/25 04:05:38;;;;;;;6.40;4.60;;;;;;;;;;5020238;28;20868;-90
2023/09/25 04:08:05;;;;;;;5.23;4.13;;;;;;;;;;5040968;28;20452;-86
2023/09/25 04:10:31;;;;;;;7.40;4.40;;;;;;;;;;5035149;28;20508;-90
2023/09/25 04:12:57;;;;;;;5.13;4.20;;;;;;;;;;5034831;28;20846;-87
2023/09/25 04:15:26;;;;;;;4.23;3.83;;;;;;;;;;5034750;28;20425;-88
2023/09/25 04:17:52;;;;;;;6.03;4.47;;;;;;;;;;5034837;28;20421;-88
2023/09/25 04:20:24;;;;;;;5.50;3.80;;;;;;;;;;5034141;28;20513;-87
2023/09/25 04:22:50;;;;;;;5.67;4.30;;;;;;;;;;5017699;28;20409;-88
2023/09/25 04:25:19;;;;;;;4.33;3.80;;;;;;;;;;5017618;28;20811;-92
2023/09/25 04:27:45;;;;;;;6.33;5.63;;;;;;;;;;5017156;28;20503;-90
2023/09/25 04:30:33;;;;;;;5.10;3.93;;;;;;;;;;5034908;28;20800;-86
2023/09/25 04:32:58;;;;;;;7.50;4.23;;;;;;;;;;5034090;28;20422;-90
2023/09/25 04:35:24;;;;;;;5.13;4.50;;;;;;;;;;5016932;28;20422;-90
2023/09/25 04:37:51;;;;;;;4.00;3.57;;;;;;;;;;5035070;28;20415;-88
2023/09/25 04:42:46;;;;;;;4.80;4.17;;;;;;;;;;5036160;28;20504;-85
2023/09/25 04:45:13;;;;;;;5.20;4.10;;;;;;;;;;5033706;28;20528;-88
2023/09/25 04:47:42;;;;;;;4.57;4.00;;;;;;;;;;5033966;28;20556;-86
2023/09/25 04:50:11;;;;;;;5.47;4.50;;;;;;;;;;5039189;28;20437;-88
2023/09/25 04:52:41;;;;;;;5.17;4.67;;;;;;;;;;5034129;28;20425;-86
2023/09/25 04:55:08;;;;;;;5.03;4.53;;;;;;;;;;5033638;28;20456;-86
2023/09/25 04:57:34;;;;;;;6.10;4.40;;;;;;;;;;5033498;28;20405;-85
2023/09/25 05:00:13;;;;;;;5.80;4.47;;;;;;;;;;5033714;28;20768;-86
2023/09/25 05:02:39;;;;;;;6.00;4.90;;;;;;;;;;5029858;28;20433;-86
2023/09/25 05:05:06;;;;;;;6.90;4.67;;;;;;;;;;5015727;28;20405;-88
2023/09/25 05:07:35;;;;;;;5.93;4.77;;;;;;;;;;5032998;28;20457;-86
2023/09/25 05:10:04;;;;;;;5.53;4.97;;;;;;;;;;5033562;28;20450;-87
2023/09/25 05:12:31;;;;;;;7.10;4.57;;;;;;;;;;5033388;28;20830;-87
2023/09/25 05:14:57;;;;;;;7.67;4.30;;;;;;;;;;5015734;28;20416;-88
2023/09/25 05:17:23;;;;;;;6.73;4.30;;;;;;;;;;5035237;28;20897;-88
2023/09/25 05:19:49;;;;;;;5.30;4.80;;;;;;;;;;5035837;28;20891;-87
2023/09/25 05:22:14;;;;;;;7.33;4.70;;;;;;;;;;5015183;28;20419;-88
2023/09/25 05:24:40;;;;;;;5.80;5.10;;;;;;;;;;5015727;28;20412;-87
2023/09/25 05:27:06;;;;;;;6.57;4.97;;;;;;;;;;5015427;28;20492;-88
2023/09/25 05:29:32;;;;;;;6.80;5.47;;;;;;;;;;5015612;28;20492;-87
2023/09/25 05:31:58;;;;;;;9.20;6.65;;;;;;;;;;5014499;28;20925;-90
2023/09/25 05:34:24;;;;;;;6.57;5.57;;;;;;;;;;5023879;28;20176;-90
2023/09/25 05:36:50;;;;;;;6.83;6.00;;;;;;;;;;5016975;28;20428;-89
2023/09/25 05:39:17;;;;;;;6.90;5.70;;;;;;;;;;5031495;28;20614;-86
2023/09/25 05:41:43;;;;;;;5.60;4.87;;;;;;;;;;5015187;28;20417;-88
2023/09/25 05:44:10;;;;;;;6.30;4.80;;;;;;;;;;5032936;28;20405;-88
2023/09/25 05:46:36;;;;;;;6.20;5.60;;;;;;;;;;5015219;28;20471;-88
2023/09/25 05:49:02;;;;;;;4.87;4.40;;;;;;;;;;5033554;28;20409;-89
2023/09/25 05:51:28;;;;;;;5.60;5.00;;;;;;;;;;5014989;28;20410;-87
2023/09/25 05:53:54;;;;;;;8.40;7.53;;;;;;;;;;5032708;28;20414;-89
2023/09/25 05:56:20;;;;;;;6.93;5.40;;;;;;;;;;5014773;28;20419;-87
2023/09/25 05:58:46;;;;;;;6.90;5.00;;;;;;;;;;5015193;28;20523;-87
2023/09/25 06:01:12;;;;;;;5.40;4.73;;;;;;;;;;5015826;28;20184;-87
2023/09/25 06:03:38;;;;;;;5.17;4.50;;;;;;;;;;5032595;28;20423;-90
2023/09/25 06:06:05;;;;;;;6.80;6.20;;;;;;;;;;5030875;28;20459;-90
2023/09/25 06:08:31;;;;;;;5.57;5.07;;;;;;;;;;5033395;28;20849;-91
2023/09/25 06:11:02;;;;;;;6.50;5.90;;;;;;;;;;5015540;28;20434;-88
2023/09/25 06:13:30;;;;;;;6.73;6.00;;;;;;;;;;5013120;28;20555;-90
2023/09/25 06:15:57;;;;;;;6.60;5.93;;;;;;;;;;5014818;28;20814;-87
2023/09/25 06:18:23;;;;;;;5.50;5.00;;;;;;;;;;5033108;28;20430;-89
2023/09/25 06:20:48;;;;;;;6.10;5.20;;;;;;;;;;5033484;28;20497;-88
2023/09/25 06:23:15;;;;;;;9.43;5.63;;;;;;;;;;5015927;28;20510;-88
2023/09/25 06:25:44;;;;;;;8.10;5.97;;;;;;;;;;5032579;28;20530;-89
2023/09/25 06:28:14;;;;;;;5.10;4.60;;;;;;;;;;5036109;28;20473;-89
2023/09/25 06:30:43;;;;;;;6.03;5.00;;;;;;;;;;5020343;28;20792;-93
2023/09/25 06:33:09;;;;;;;5.73;4.43;;;;;;;;;;5038709;28;20423;-94
2023/09/25 06:35:35;;;;;;;4.60;3.97;;;;;;;;;;5016327;28;20428;-90
2023/09/25 06:38:01;;;;;;;4.80;3.80;;;;;;;;;;5033829;28;20894;-91
2023/09/25 06:40:28;;;;;;;6.80;4.93;;;;;;;;;;5016422;28;20180;-90
2023/09/25 06:42:53;;;;;;;6.17;3.87;;;;;;;;;;5034350;28;20170;-90
2023/09/25 06:45:21;;;;;;;5.37;3.40;;;;;;;;;;5033384;28;20412;-90
2023/09/25 06:47:47;;;;;;;3.90;3.00;;;;;;;;;;5015873;28;20210;-89
2023/09/25 06:50:16;;;;;;;5.30;4.70;;;;;;;;;;5016615;28;20505;-92
2023/09/25 06:52:43;;;;;;;4.33;3.67;;;;;;;;;;5018494;28;20514;-91
2023/09/25 06:55:12;;;;;;;5.60;5.00;;;;;;;;;;5034134;28;20409;-93
2023/09/25 06:57:37;;;;;;;4.33;3.87;;;;;;;;;;5017319;28;20966;-85
2023/09/25 07:00:04;;;;;;;6.97;4.30;;;;;;;;;;5032723;28;20417;-91
2023/09/25 07:02:31;;;;;;;4.20;3.83;;;;;;;;;;5019783;28;20429;-92
2023/09/25 07:04:58;;;;;;;4.23;2.93;;;;;;;;;;5033957;28;20406;-86
2023/09/25 07:07:32;;;;;;;4.33;3.10;;;;;;;;;;5035894;28;20466;-92
2023/09/25 07:09:58;;;;;;;5.47;2.80;;;;;;;;;;5039358;28;20402;-93
2023/09/25 07:12:28;;;;;;;3.70;3.10;;;;;;;;;;5021645;28;20881;-93
2023/09/25 07:14:58;;;;;;;3.80;2.60;;;;;;;;;;5021395;28;20411;-96
2023/09/25 07:17:24;;;;;;;5.10;2.90;;;;;;;;;;5019597;28;20913;-92
2023/09/25 07:19:55;;;;;;;5.90;3.13;;;;;;;;;;5018682;28;20429;-92
2023/09/25 07:22:21;;;;;;;8.13;3.70;;;;;;;;;;5018384;28;20428;-84
2023/09/25 07:24:47;;;;;;;5.17;3.70;;;;;;;;;;5038283;28;20433;-86
2023/09/25 07:27:13;;;;;;;3.60;3.30;;;;;;;;;;5035261;28;20481;-88
2023/09/25 07:29:42;;;;;;;5.10;2.60;;;;;;;;;;5018678;28;20436;-87
2023/09/25 07:32:08;;;;;;;5.57;3.20;;;;;;;;;;5023190;28;20423;-88
2023/09/25 07:34:34;;;;;;;6.93;3.20;;;;;;;;;;5021231;28;20929;-93
2023/09/25 07:37:00;;;;;;;3.23;2.57;;;;;;;;;;5024012;28;20429;-89
2023/09/25 07:39:26;;;;;;;4.47;3.10;;;;;;;;;;5013553;28;20211;-89
2023/09/25 07:41:52;;;;;;;3.30;3.00;;;;;;;;;;5019920;28;20943;-91
2023/09/25 07:44:19;;;;;;;3.83;2.70;;;;;;;;;;5018001;28;20265;-89
2023/09/25 07:46:47;;;;;;;8.37;2.87;;;;;;;;;;5035777;28;20465;-92
2023/09/25 07:49:13;;;;;;;2.50;1.90;;;;;;;;;;5034501;28;20415;-87
2023/09/25 07:51:39;;;;;;;4.73;2.10;;;;;;;;;;5034332;28;20474;-86
2023/09/25 07:54:06;;;;;;;4.80;1.93;;;;;;;;;;5035188;28;20416;-89
2023/09/25 07:56:33;;;;;;;2.33;1.83;;;;;;;;;;5017122;28;20173;-86
2023/09/25 07:59:00;;;;;;;4.00;1.57;;;;;;;;;;5034554;28;20462;-90
2023/09/25 08:01:29;;;;;;;1.63;1.43;;;;;;;;;;5017534;28;20837;-89
2023/09/25 08:03:56;;;;;;;2.47;1.37;;;;;;;;;;5017459;28;20431;-89
2023/09/25 08:06:27;;;;;;;1.30;0.93;;;;;;;;;;5015517;28;20553;-92
2023/09/25 08:08:53;;;;;;;1.50;1.33;;;;;;;;;;5032516;28;20847;-89
2023/09/25 08:11:19;;;;;;;1.30;1.10;;;;;;;;;;5034495;28;20511;-90
2023/09/25 08:13:45;;;;;;;1.97;1.03;;;;;;;;;;5035132;28;20260;-88
2023/09/25 08:16:11;;;;;;;2.47;1.00;;;;;;;;;;5017110;28;20200;-86
2023/09/25 08:18:37;;;;;;;3.40;0.80;;;;;;;;;;5034631;28;20424;-88
2023/09/25 08:21:04;;;;;;;1.00;0.73;;;;;;;;;;5013852;28;20740;-86
2023/09/25 08:23:30;;;;;;;1.53;1.00;;;;;;;;;;5033505;28;20173;-91
2023/09/25 08:25:57;;;;;;;1.50;0.70;;;;;;;;;;5016734;28;20436;-88
2023/09/25 08:28:23;;;;;;;1.90;0.77;;;;;;;;;;5031330;28;20819;-88
2023/09/25 08:30:50;;;;;;;2.43;1.00;;;;;;;;;;5034011;28;20412;-87
2023/09/25 08:33:16;;;;;;;5.10;1.00;;;;;;;;;;5018939;28;20543;-89
2023/09/25 08:35:48;;;;;;;2.50;0.93;;;;;;;;;;5017092;28;20816;-89
2023/09/25 08:38:14;;;;;;;1.10;0.50;;;;;;;;;;5027346;28;20424;-89
2023/09/25 08:40:44;;;;;;;2.07;0.90;;;;;;;;;;5029564;28;20451;-87
2023/09/25 08:43:11;;;;;;;1.07;0.53;;;;;;;;;;5032341;28;20447;-92
2023/09/25 08:45:37;;;;;;;1.43;0.83;;;;;;;;;;5016189;28;20478;-88
2023/09/25 08:48:03;;;;;;;2.73;0.40;;;;;;;;;;5016467;28;20472;-89
2023/09/25 08:50:33;;;;;;;1.43;0.50;;;;;;;;;;5035068;28;20429;-91
2023/09/25 08:52:58;;;;;;;3.37;0.60;;;;;;;;;;5032673;28;20425;-86
2023/09/25 08:55:25;;;;;;;1.90;0.80;;;;;;;;;;5031212;28;20491;-87
2023/09/25 08:57:51;;;;;;;1.00;0.30;;;;;;;;;;5034328;28;20694;-90
2023/09/25 09:00:17;;;;;;;2.27;0.97;;;;;;;;;;5034286;28;20466;-86
2023/09/25 09:02:43;;;;;;;1.70;0.50;;;;;;;;;;5015715;28;20754;-87
2023/09/25 09:05:13;;;;;;;1.90;0.47;;;;;;;;;;5030401;28;20627;-90
2023/09/25 09:07:39;;;;;;;2.30;0.57;;;;;;;;;;5013444;28;20581;-89
2023/09/25 09:10:06;;;;;;;2.10;0.33;;;;;;;;;;5015406;28;20463;-87
2023/09/25 09:12:37;;;;;;;2.23;0.50;;;;;;;;;;5032786;28;20970;-86
2023/09/25 09:15:03;;;;;;;1.57;0.40;;;;;;;;;;5012882;28;20514;-88
2023/09/25 09:17:29;;;;;;;1.67;0.50;;;;;;;;;;5010267;28;20429;-86
2023/09/25 09:19:55;;;;;;;2.93;0.40;;;;;;;;;;5015040;28;20765;-88
2023/09/25 09:22:21;;;;;;;1.10;0.40;;;;;;;;;;5032900;28;20408;-89
2023/09/25 09:24:49;;;;;;;1.03;0.47;;;;;;;;;;5033880;28;20424;-89
2023/09/25 09:27:20;;;;;;;1.43;0.57;;;;;;;;;;5017209;28;20473;-91
2023/09/25 09:29:46;;;;;;;3.43;0.80;;;;;;;;;;5014497;28;20428;-92
2023/09/25 09:32:14;;;;;;;2.47;0.40;;;;;;;;;;5017212;28;20511;-88
2023/09/25 09:34:40;;;;;;;2.80;0.90;;;;;;;;;;5017708;28;20924;-91
2023/09/25 09:37:09;;;;;;;2.03;0.47;;;;;;;;;;5015750;28;20943;-89
2023/09/25 09:39:36;;;;;;;1.17;0.53;;;;;;;;;;5022188;28;20951;-88
2023/09/25 09:42:11;;;;;;;0.90;0.30;;;;;;;;;;5020729;28;20447;-92
2023/09/25 09:44:38;;;;;;;1.70;0.40;;;;;;;;;;5022592;28;20413;-92
2023/09/25 09:47:08;;;;;;;2.40;0.53;;;;;;;;;;5019427;28;20642;-92
2023/09/25 09:49:41;;;;;;;1.07;0.50;;;;;;;;;;5036149;28;20417;-91
2023/09/25 09:52:07;;;;;;;1.90;0.60;;;;;;;;;;5020699;28;20421;-90
2023/09/25 09:54:41;;;;;;;0.90;0.23;;;;;;;;;;5030242;28;20862;-89
2023/09/25 09:57:11;;;;;;;1.57;0.63;;;;;;;;;;5021909;28;20913;-93
2023/09/25 09:59:37;;;;;;;1.90;0.40;;;;;;;;;;5019011;28;20965;-90
2023/09/25 10:02:04;;;;;;;2.10;0.73;;;;;;;;;;5034816;28;20488;-90
2023/09/25 10:04:30;;;;;;;4.10;2.50;;;;;;;;;;5033990;28;20548;-92
2023/09/25 10:07:00;;;;;;;1.63;0.47;;;;;;;;;;5017984;28;20460;-89
2023/09/25 10:09:27;;;;;;;1.47;0.30;;;;;;;;;;5036667;28;20409;-91
2023/09/25 10:11:56;;;;;;;1.33;0.60;;;;;;;;;;5022195;28;20489;-92
2023/09/25 10:14:31;;;;;;;2.90;0.57;;;;;;;;;;5021397;28;20460;-93
2023/09/25 10:17:01;;;;;;;1.77;0.63;;;;;;;;;;5037519;28;20420;-92
2023/09/25 10:19:36;;;;;;;2.40;0.80;;;;;;;;;;5035770;28;20413;-90
2023/09/25 10:22:05;;;;;;;2.73;0.63;;;;;;;;;;5018352;28;20511;-91
2023/09/25 10:24:32;;;;;;;1.43;0.50;;;;;;;;;;5018090;28;21084;-92
2023/09/25 10:26:58;;;;;;;2.40;0.40;;;;;;;;;;5036427;28;20559;-92
2023/09/25 10:29:24;;;;;;;0.80;0.50;;;;;;;;;;5019962;28;20444;-92
2023/09/25 10:31:50;;;;;;;1.57;0.53;;;;;;;;;;5018452;28;20443;-90
2023/09/25 10:34:16;;;;;;;1.10;0.40;;;;;;;;;;5020771;28;20910;-93
2023/09/25 10:36:43;;;;;;;1.83;1.17;;;;;;;;;;5039283;28;20179;-88
2023/09/25 10:39:13;;;;;;;1.60;0.87;;;;;;;;;;5017636;28;20785;-92
2023/09/25 10:41:39;;;;;;;3.60;0.90;;;;;;;;;;5035692;28;20408;-89
2023/09/25 10:44:05;;;;;;;1.17;0.43;;;;;;;;;;5020347;28;20423;-91
2023/09/25 10:46:31;;;;;;;1.27;0.50;;;;;;;;;;5039349;28;20540;-92
2023/09/25 10:48:58;;;;;;;1.03;0.50;;;;;;;;;;5037829;28;20413;-93
2023/09/25 10:51:24;;;;;;;1.73;0.50;;;;;;;;;;5037913;28;20409;-88
2023/09/25 10:53:50;;;;;;;2.07;0.60;;;;;;;;;;5037625;28;20475;-91
2023/09/25 10:56:16;;;;;;;1.67;0.77;;;;;;;;;;5038111;28;20409;-93
2023/09/25 10:58:43;;;;;;;3.10;1.20;;;;;;;;;;5040107;28;20464;-93
2023/09/25 11:01:09;;;;;;;2.00;0.73;;;;;;;;;;5022695;28;20424;-91
2023/09/25 11:03:37;;;;;;;1.10;0.63;;;;;;;;;;5045754;28;20406;-89
2023/09/25 11:06:03;;;;;;;1.37;0.67;;;;;;;;;;5031620;28;20417;-92
2023/09/25 11:08:28;;;;;;;1.80;0.80;;;;;;;;;;5039508;28;20449;-91
2023/09/25 11:10:56;;;;;;;2.40;0.60;;;;;;;;;;5020126;28;20540;-91
2023/09/25 11:13:22;;;;;;;1.80;0.87;;;;;;;;;;5039061;28;20639;-93
2023/09/25 11:15:48;;;;;;;1.83;0.70;;;;;;;;;;5037796;28;20405;-92
2023/09/25 11:18:16;;;;;;;2.13;0.80;;;;;;;;;;5038420;28;20626;-94
2023/09/25 11:20:44;;;;;;;1.27;0.50;;;;;;;;;;5037540;28;20415;-92
2023/09/25 11:23:11;;;;;;;2.63;0.60;;;;;;;;;;5038393;28;20421;-91
2023/09/25 11:25:44;;;;;;;1.60;0.50;;;;;;;;;;5020152;28;20427;-93
2023/09/25 11:28:14;;;;;;;2.73;0.83;;;;;;;;;;5022169;28;20504;-92
2023/09/25 11:30:41;;;;;;;1.53;0.53;;;;;;;;;;5037694;28;20409;-91
2023/09/25 11:33:08;;;;;;;1.50;0.50;;;;;;;;;;5037174;28;20420;-87
2023/09/25 11:35:37;;;;;;;1.67;0.67;;;;;;;;;;5040310;28;20405;-89
2023/09/25 11:38:12;;;;;;;1.00;0.30;;;;;;;;;;5038903;28;20409;-91
2023/09/25 11:40:38;;;;;;;1.50;0.70;;;;;;;;;;5020100;28;20814;-91
2023/09/25 11:43:04;;;;;;;2.00;0.83;;;;;;;;;;5038685;28;20941;-90
2023/09/25 11:45:30;;;;;;;1.43;1.10;;;;;;;;;;5038969;28;20417;-87
2023/09/25 11:47:58;;;;;;;0.93;0.53;;;;;;;;;;5020863;28;20880;-93
2023/09/25 11:50:24;;;;;;;2.47;0.70;;;;;;;;;;5038150;28;20409;-90
2023/09/25 11:52:49;;;;;;;0.90;0.50;;;;;;;;;;5039437;28;20559;-93
2023/09/25 11:55:16;;;;;;;2.03;0.73;;;;;;;;;;5039755;28;20178;-89
2023/09/25 11:57:42;;;;;;;1.67;0.73;;;;;;;;;;5021991;28;20226;-89
2023/09/25 12:00:12;;;;;;;2.77;0.40;;;;;;;;;;5037299;28;20405;-93
2023/09/25 12:02:38;;;;;;;1.40;0.70;;;;;;;;;;5037042;28;20417;-90
2023/09/25 12:05:04;;;;;;;3.03;0.80;;;;;;;;;;5038822;28;20413;-91
2023/09/25 12:07:31;;;;;;;1.33;0.60;;;;;;;;;;5038337;28;20847;-92
2023/09/25 12:09:57;;;;;;;1.63;0.70;;;;;;;;;;5038023;28;20412;-91
2023/09/25 12:12:23;;;;;;;3.13;0.60;;;;;;;;;;5036929;28;20417;-90
2023/09/25 12:14:51;;;;;;;3.20;0.60;;;;;;;;;;5036083;28;20964;-91
2023/09/25 12:17:18;;;;;;;3.87;1.33;;;;;;;;;;5037083;28;20482;-88
2023/09/25 12:19:45;;;;;;;1.07;0.37;;;;;;;;;;5037360;28;20516;-87
2023/09/25 12:22:11;;;;;;;1.30;0.50;;;;;;;;;;5019339;28;20870;-92
2023/09/25 12:24:38;;;;;;;1.60;0.60;;;;;;;;;;5040919;28;20748;-89
2023/09/25 12:27:04;;;;;;;1.20;0.70;;;;;;;;;;5055916;28;20205;-85
2023/09/25 12:29:30;;;;;;;1.10;0.50;;;;;;;;;;5051672;28;20413;-90
2023/09/25 12:31:56;;;;;;;3.87;0.53;;;;;;;;;;5032956;28;20182;-89
2023/09/25 12:34:31;;;;;;;1.07;0.47;;;;;;;;;;5032834;28;20181;-91
2023/09/25 12:36:57;;;;;;;1.00;0.57;;;;;;;;;;5037756;28;20178;-92
2023/09/25 12:39:23;;;;;;;1.67;0.57;;;;;;;;;;5036217;28;20743;-92
2023/09/25 12:41:49;;;;;;;3.03;0.93;;;;;;;;;;5035361;28;20171;-90
2023/09/25 12:44:15;;;;;;;1.17;0.53;;;;;;;;;;5035767;28;20965;-90
2023/09/25 12:46:41;;;;;;;1.20;0.40;;;;;;;;;;5036515;28;20667;-93
2023/09/25 12:49:07;;;;;;;3.50;0.80;;;;;;;;;;5035722;28;20441;-88
2023/09/25 12:51:33;;;;;;;1.10;0.40;;;;;;;;;;5018374;28;20405;-87
2023/09/25 12:53:59;;;;;;;1.73;0.60;;;;;;;;;;5017725;28;20181;-88
2023/09/25 12:56:25;;;;;;;3.87;1.07;;;;;;;;;;5035600;28;20181;-96
2023/09/25 12:58:51;;;;;;;0.90;0.50;;;;;;;;;;5019291;28;20226;-90
2023/09/25 13:01:17;;;;;;;1.93;0.40;;;;;;;;;;5035540;28;20413;-89
2023/09/25 13:03:43;;;;;;;1.30;1.10;;;;;;;;;;5035736;28;20709;-92
2023/09/25 13:06:09;;;;;;;1.37;0.60;;;;;;;;;;5017604;28;20261;-89
2023/09/25 13:08:35;;;;;;;2.73;0.77;;;;;;;;;;5016325;28;20236;-87
2023/09/25 13:11:01;;;;;;;13.53;3.40;;;;;;;;;;5016522;28;20956;-88
2023/09/25 13:13:27;;;;;;;1.20;0.70;;;;;;;;;;5036397;28;20421;-90
2023/09/25 13:15:53;;;;;;;2.97;0.73;;;;;;;;;;4990728;28;20449;-89
2023/09/25 13:18:19;;;;;;;2.93;1.00;;;;;;;;;;4994311;28;20899;-86
2023/09/25 13:20:47;;;;;;;6.50;1.13;;;;;;;;;;4995383;28;20469;-93
2023/09/25 13:23:13;;;;;;;1.60;0.93;;;;;;;;;;4978663;28;20171;-91
2023/09/25 13:25:39;;;;;;;2.17;1.40;;;;;;;;;;5005651;28;20432;-89
2023/09/25 13:28:05;;;;;;;2.03;0.57;;;;;;;;;;5016993;28;20483;-90
2023/09/25 13:30:31;;;;;;;3.27;1.00;;;;;;;;;;5034816;28;20432;-92
2023/09/25 13:32:58;;;;;;;1.60;0.87;;;;;;;;;;5016003;28;20461;-86
2023/09/25 13:35:24;;;;;;;1.47;0.73;;;;;;;;;;5032967;28;20180;-87
2023/09/25 13:37:51;;;;;;;2.40;0.70;;;;;;;;;;5033228;28;20428;-89
2023/09/25 13:40:17;;;;;;;1.80;0.47;;;;;;;;;;5033240;28;20905;-86
2023/09/25 13:42:44;;;;;;;1.23;0.90;;;;;;;;;;5033272;28;20502;-87
2023/09/25 13:45:12;;;;;;;1.37;0.53;;;;;;;;;;5033217;28;20414;-87
2023/09/25 13:47:39;;;;;;;2.67;0.90;;;;;;;;;;5033087;28;20467;-85
2023/09/25 13:50:06;;;;;;;1.67;0.87;;;;;;;;;;5032797;28;20943;-87
2023/09/25 13:52:32;;;;;;;2.60;0.90;;;;;;;;;;5033182;28;20453;-86
2023/09/25 13:54:58;;;;;;;1.77;0.57;;;;;;;;;;5033108;28;20414;-85
2023/09/25 13:57:24;;;;;;;1.70;0.70;;;;;;;;;;5015104;28;20510;-86
2023/09/25 13:59:50;;;;;;;1.10;0.60;;;;;;;;;;5033049;28;20412;-87
2023/09/25 14:02:16;;;;;;;1.57;1.00;;;;;;;;;;5015388;28;20183;-86
2023/09/25 14:04:42;;;;;;;1.90;1.10;;;;;;;;;;5014898;28;20544;-87
2023/09/25 14:07:08;;;;;;;1.90;0.77;;;;;;;;;;5032673;28;20480;-86
2023/09/25 14:09:34;;;;;;;1.80;0.93;;;;;;;;;;5032883;28;20173;-87
2023/09/25 14:12:00;;;;;;;2.10;0.53;;;;;;;;;;5015121;28;20932;-87
2023/09/25 14:14:39;;;;;;;1.90;0.70;;;;;;;;;;5015255;28;20180;-85
2023/09/25 14:17:06;;;;;;;2.70;0.87;;;;;;;;;;5035774;28;20422;-87
2023/09/25 14:19:32;;;;;;;1.77;0.70;;;;;;;;;;5036556;28;20547;-86
2023/09/25 14:21:58;;;;;;;2.17;0.57;;;;;;;;;;5036885;28;20482;-89
2023/09/25 14:24:24;;;;;;;2.50;0.77;;;;;;;;;;5018977;28;20509;-85
2023/09/25 14:26:50;;;;;;;3.33;0.70;;;;;;;;;;5036566;28;20975;-86
2023/09/25 14:29:16;;;;;;;2.10;1.03;;;;;;;;;;5018991;28;20177;-88
2023/09/25 14:31:42;;;;;;;4.07;0.70;;;;;;;;;;5037270;28;20450;-90
2023/09/25 14:34:08;;;;;;;1.47;0.90;;;;;;;;;;5036405;28;20174;-92
2023/09/25 14:36:34;;;;;;;1.83;0.57;;;;;;;;;;5037317;28;20182;-89
2023/09/25 14:39:00;;;;;;;3.70;1.13;;;;;;;;;;5020972;28;20450;-90
2023/09/25 14:41:26;;;;;;;1.47;0.80;;;;;;;;;;5020253;28;20416;-90
2023/09/25 14:43:52;;;;;;;1.80;0.80;;;;;;;;;;5037498;28;20177;-92